Time;durP1;ratioP1;P1;durP2;ratioP2;P2;SDS_P1;SDS_P2;PMS_P1;PMS_P2;Temp;Humidity;BMP_temperature;BMP_pressure;BME280_temperature;BME280_humidity;BME280_pressure;Samples;Min_cycle;Max_cycle;Signal;HPM_P1;HPM_P2
2022/01/26 00:07:13;;;;;;;;;;;;;;;26.52;45.35;97775.86;630036;225;67166;-65
2022/01/26 00:09:41;;;;;;;;;;;;;;;26.56;44.97;97778.77;630023;225;65048;-65
2022/01/26 00:12:09;;;;;;;;;;;;;;;26.49;50.57;97773.72;630081;225;67194;-70
2022/01/26 00:14:42;;;;;;;;;;;;;;;26.47;45.27;97769.70;630058;225;66851;-70
2022/01/26 00:17:11;;;;;;;;;;;;;;;26.51;51.08;97770.75;629945;225;62971;-70
2022/01/26 00:19:57;;;;;;;;;;;;;;;26.49;51.13;97775.58;630022;225;64561;-70
2022/01/26 00:22:40;;;;;;;;;;;;;;;26.43;51.21;97765.96;629827;224;67397;-69
2022/01/26 00:25:05;;;;;;;;;;;;;;;26.41;50.92;97766.27;629434;224;65049;-70
2022/01/26 00:27:35;;;;;;;;;;;;;;;26.44;44.13;97770.28;629456;224;67283;-69
2022/01/26 00:31:59;;;;;;;;;;;;;;;26.45;48.22;97761.09;629705;224;65590;-69
2022/01/26 00:40:43;;;;;;;;;;;;;;;26.38;51.72;97761.42;630061;225;65130;-69
2022/01/26 00:43:46;;;;;;;;;;;;;;;26.35;48.51;97756.62;629931;225;66921;-69
2022/01/26 00:45:45;;;;;;;;;;;;;;;26.35;51.95;97752.06;629058;225;67152;-70
2022/01/26 00:48:19;;;;;;;;;;;;;;;26.37;53.11;97759.04;630045;225;62981;-70
2022/01/26 00:50:49;;;;;;;;;;;;;;;26.34;49.10;97761.21;629838;224;65340;-65
2022/01/26 00:53:11;;;;;;;;;;;;;;;26.34;50.65;97755.83;629754;224;64814;-65
2022/01/26 00:55:38;;;;;;;;;;;;;;;26.34;52.31;97755.83;630015;225;63802;-65
2022/01/26 00:58:05;;;;;;;;;;;;;;;26.35;49.90;97751.23;630048;225;67020;-63
2022/01/26 01:00:33;;;;;;;;;;;;;;;26.32;51.60;97758.00;630109;225;66827;-63
2022/01/26 01:03:01;;;;;;;;;;;;;;;26.34;47.45;97749.63;630036;225;65005;-65
2022/01/26 01:05:38;;;;;;;;;;;;;;;26.31;44.11;97747.52;630085;225;66839;-65
2022/01/26 01:08:07;;;;;;;;;;;;;;;26.32;50.51;97747.22;629622;224;64356;-65
2022/01/26 01:10:28;;;;;;;;;;;;;;;26.33;46.83;97743.45;629342;225;64937;-65
2022/01/26 01:12:58;;;;;;;;;;;;;;;26.32;51.20;97738.34;630076;225;66935;-70
2022/01/26 01:15:26;;;;;;;;;;;;;;;26.29;52.55;97737.02;630029;225;66843;-70
2022/01/26 01:18:04;;;;;;;;;;;;;;;26.26;47.03;97737.59;630073;225;65103;-70
2022/01/26 01:21:06;;;;;;;;;;;;;;;26.25;48.81;97741.39;629712;224;66762;-70
2022/01/26 01:23:27;;;;;;;;;;;;;;;26.27;43.51;97736.53;629322;225;64516;-65
2022/01/26 01:28:26;;;;;;;;;;;;;;;26.24;47.24;97731.69;630110;225;64598;-64
2022/01/26 01:30:51;;;;;;;;;;;;;;;26.25;52.26;97732.52;629864;224;66320;-64
2022/01/26 01:33:20;;;;;;;;;;;;;;;26.22;49.69;97736.59;629907;224;65039;-64
2022/01/26 01:35:47;;;;;;;;;;;;;;;26.21;50.52;97728.77;629901;224;67176;-64
2022/01/26 01:38:17;;;;;;;;;;;;;;;26.18;50.22;97735.54;629976;225;67361;-64
2022/01/26 01:40:45;;;;;;;;;;;;;;;26.16;50.29;97726.94;629963;225;65040;-69
2022/01/26 01:43:14;;;;;;;;;;;;;;;26.17;52.16;97733.95;630075;225;67200;-69
2022/01/26 01:45:44;;;;;;;;;;;;;;;26.17;53.00;97727.77;630043;225;64849;-69
2022/01/26 01:48:14;;;;;;;;;;;;;;;26.15;52.36;97728.03;630057;225;63104;-68
2022/01/26 01:50:42;;;;;;;;;;;;;;;26.11;52.65;97727.02;630030;225;65074;-69
2022/01/26 01:53:10;;;;;;;;;;;;;;;26.12;52.39;97728.61;630458;224;67041;-69
2022/01/26 01:55:42;;;;;;;;;;;;;;;26.10;54.43;97720.02;631522;224;63800;-69
2022/01/26 01:58:10;;;;;;;;;;;;;;;26.09;51.07;97721.11;631486;224;66870;-69
2022/01/26 02:00:38;;;;;;;;;;;;;;;26.07;52.58;97716.00;631460;224;66887;-70
2022/01/26 02:03:06;;;;;;;;;;;;;;;26.06;53.30;97710.91;631433;224;65007;-70
2022/01/26 02:05:33;;;;;;;;;;;;;;;26.06;51.64;97710.91;631467;224;66040;-70
2022/01/26 02:08:01;;;;;;;;;;;;;;;26.07;52.67;97707.91;631458;224;66866;-70
2022/01/26 02:10:30;;;;;;;;;;;;;;;26.03;53.76;97700.72;631511;224;64951;-69
2022/01/26 02:13:00;;;;;;;;;;;;;;;26.03;50.50;97701.52;631473;224;67193;-69
2022/01/26 02:15:36;;;;;;;;;;;;;;;25.99;51.96;97689.70;631448;224;67024;-65
2022/01/26 02:18:16;;;;;;;;;;;;;;;25.99;54.44;97688.91;631009;224;65085;-65
2022/01/26 02:56:16;;;;;;;;;;;;;;;25.83;54.79;97664.83;632781;224;67472;-65
2022/01/26 03:01:26;;;;;;;;;;;;;;;25.82;50.18;97654.34;632766;224;65067;-65
2022/01/26 03:03:44;;;;;;;;;;;;;;;25.81;54.28;97655.41;631709;224;64948;-69
2022/01/26 03:06:17;;;;;;;;;;;;;;;25.80;54.68;97656.50;631707;224;68036;-69
2022/01/26 03:08:51;;;;;;;;;;;;;;;25.81;54.15;97658.09;632622;224;67173;-70
2022/01/26 03:11:13;;;;;;;;;;;;;;;25.82;52.79;97657.03;632172;224;64863;-69
2022/01/26 03:13:52;;;;;;;;;;;;;;;25.80;47.24;97653.81;632720;224;62866;-69
2022/01/26 03:16:23;;;;;;;;;;;;;;;25.80;54.92;97657.30;632523;224;66745;-69
2022/01/26 03:21:30;;;;;;;;;;;;;;;25.74;54.96;97655.77;632755;224;65095;-68
2022/01/26 03:29:40;;;;;;;;;;;;;;;25.69;53.27;97664.69;632731;224;65144;-70
2022/01/26 03:34:42;;;;;;;;;;;;;;;25.69;49.67;97658.51;632763;224;66950;-68
2022/01/26 03:37:09;;;;;;;;;;;;;;;25.68;53.38;97659.61;632733;224;65107;-68
2022/01/26 03:39:44;;;;;;;;;;;;;;;25.66;53.96;97653.70;632806;224;67108;-68
2022/01/26 03:42:08;;;;;;;;;;;;;;;25.65;54.77;97652.11;632409;224;67065;-68
2022/01/26 03:44:36;;;;;;;;;;;;;;;25.64;48.99;97655.87;632754;224;63002;-69
2022/01/26 03:47:03;;;;;;;;;;;;;;;25.67;53.41;97655.29;632750;224;64877;-69
2022/01/26 03:49:31;;;;;;;;;;;;;;;25.65;53.55;97660.18;632709;224;67115;-69
2022/01/26 03:51:58;;;;;;;;;;;;;;;25.63;51.53;97655.07;632756;224;65008;-69
2022/01/26 03:54:26;;;;;;;;;;;;;;;25.62;51.88;97649.98;631628;224;67136;-69
2022/01/26 03:56:53;;;;;;;;;;;;;;;25.63;53.56;97646.99;631472;224;67072;-69
2022/01/26 03:59:21;;;;;;;;;;;;;;;25.61;54.68;97648.37;631433;224;65162;-69
2022/01/26 04:01:48;;;;;;;;;;;;;;;25.60;54.65;97649.47;631476;224;67243;-69
2022/01/26 04:04:16;;;;;;;;;;;;;;;25.56;55.92;97654.59;631457;224;66935;-69
2022/01/26 04:06:44;;;;;;;;;;;;;;;25.56;52.64;97648.42;631516;224;65050;-69
2022/01/26 04:09:13;;;;;;;;;;;;;;;25.54;55.04;97646.03;631444;224;64962;-68
2022/01/26 04:11:43;;;;;;;;;;;;;;;25.56;55.44;97654.59;631429;224;67412;-68
2022/01/26 04:14:15;;;;;;;;;;;;;;;25.52;52.68;97650.89;631391;224;65015;-69
2022/01/26 04:16:43;;;;;;;;;;;;;;;25.53;53.75;97640.92;631411;224;67316;-68
2022/01/26 04:19:11;;;;;;;;;;;;;;;25.51;54.38;97641.22;631431;224;67066;-68
2022/01/26 04:24:30;;;;;;;;;;;;;;;25.54;51.34;97637.16;631448;224;67052;-69
2022/01/26 04:27:08;;;;;;;;;;;;;;;25.53;49.29;97636.33;631212;224;64997;-69
2022/01/26 04:29:33;;;;;;;;;;;;;;;25.49;49.97;97635.31;631218;224;63104;-69
2022/01/26 04:32:02;;;;;;;;;;;;;;;25.50;53.99;97630.73;631466;224;64701;-69
2022/01/26 04:34:32;;;;;;;;;;;;;;;25.45;54.48;97635.09;631419;224;66864;-69
2022/01/26 04:39:58;;;;;;;;;;;;;;;25.42;52.83;97635.63;631438;224;67429;-69
2022/01/26 04:42:17;;;;;;;;;;;;;;;25.43;51.81;97639.16;630120;224;67117;-69
2022/01/26 04:45:02;;;;;;;;;;;;;;;25.44;54.03;97646.92;631243;224;62738;-69
2022/01/26 04:47:13;;;;;;;;;;;;;;;25.40;54.39;97639.69;629825;224;67120;-69
2022/01/26 04:49:40;;;;;;;;;;;;;;;25.40;54.95;97637.83;631487;224;66960;-69
2022/01/26 04:52:08;;;;;;;;;;;;;;;25.37;54.18;97641.09;631409;224;65115;-69
2022/01/26 04:54:35;;;;;;;;;;;;;;;25.37;51.70;97642.95;630069;224;67444;-69
2022/01/26 04:57:03;;;;;;;;;;;;;;;25.38;50.18;97641.89;630015;224;67074;-69
2022/01/26 04:59:30;;;;;;;;;;;;;;;25.38;50.73;97631.92;630008;225;65029;-69
2022/01/26 05:01:58;;;;;;;;;;;;;;;25.38;51.48;97633.81;630012;225;67444;-69
2022/01/26 05:04:25;;;;;;;;;;;;;;;25.36;48.25;97634.09;629975;225;67009;-69
2022/01/26 05:06:53;;;;;;;;;;;;;;;25.35;52.90;97637.87;630007;225;65378;-69
2022/01/26 05:09:21;;;;;;;;;;;;;;;25.35;48.55;97634.39;630016;224;67111;-69
2022/01/26 05:11:52;;;;;;;;;;;;;;;25.32;54.45;97638.45;630029;225;66752;-69
2022/01/26 05:14:18;;;;;;;;;;;;;;;25.28;53.46;97644.67;630007;225;63040;-69
2022/01/26 05:16:45;;;;;;;;;;;;;;;25.30;54.22;97635.23;630097;225;64931;-69
2022/01/26 05:19:13;;;;;;;;;;;;;;;25.28;54.55;97636.60;630067;225;66489;-69
2022/01/26 05:21:44;;;;;;;;;;;;;;;25.29;52.43;97635.50;630050;225;65087;-69
2022/01/26 05:24:11;;;;;;;;;;;;;;;25.28;52.94;97636.60;630056;225;66978;-69
2022/01/26 05:26:39;;;;;;;;;;;;;;;25.25;53.32;97648.73;630038;225;66877;-64
2022/01/26 05:29:07;;;;;;;;;;;;;;;25.24;50.11;97647.94;630107;225;63048;-64
2022/01/26 05:31:35;;;;;;;;;;;;;;;25.25;54.34;97638.77;630024;225;64680;-64
2022/01/26 05:34:02;;;;;;;;;;;;;;;25.24;52.27;97636.38;630075;225;64775;-64
2022/01/26 05:36:30;;;;;;;;;;;;;;;25.24;50.72;97636.38;630057;225;62877;-64
2022/01/26 05:38:57;;;;;;;;;;;;;;;25.23;52.82;97632.86;630069;225;64594;-64
2022/01/26 05:41:25;;;;;;;;;;;;;;;25.23;55.06;97634.75;630105;225;64944;-64
2022/01/26 05:43:52;;;;;;;;;;;;;;;25.21;50.23;97626.19;630059;225;63936;-64
2022/01/26 05:47:08;;;;;;;;;;;;;;;25.19;51.53;97629.14;630029;225;64354;-64
2022/01/26 05:48:51;;;;;;;;;;;;;;;25.19;54.57;97625.66;625011;225;64925;-64
2022/01/26 05:51:18;;;;;;;;;;;;;;;25.17;52.34;97619.75;630004;225;62936;-64
2022/01/26 05:53:46;;;;;;;;;;;;;;;25.15;53.78;97621.92;630865;224;65081;-64
2022/01/26 05:56:13;;;;;;;;;;;;;;;25.16;54.08;97618.16;631451;224;64668;-64
2022/01/26 05:58:41;;;;;;;;;;;;;;;25.16;51.24;97618.16;631409;224;63001;-64
2022/01/26 06:01:08;;;;;;;;;;;;;;;25.14;49.29;97620.30;631499;224;64858;-64
2022/01/26 06:03:36;;;;;;;;;;;;;;;25.12;54.51;97617.08;631444;224;66841;-64
2022/01/26 06:06:03;;;;;;;;;;;;;;;25.11;49.42;97618.17;631501;224;65044;-64
2022/01/26 06:08:32;;;;;;;;;;;;;;;25.12;52.90;97623.25;631487;224;67174;-64
2022/01/26 06:11:01;;;;;;;;;;;;;;;25.11;49.75;97627.04;631473;224;66986;-64
2022/01/26 06:13:28;;;;;;;;;;;;;;;25.13;51.03;97629.46;631420;224;65049;-64
2022/01/26 06:15:56;;;;;;;;;;;;;;;25.11;51.20;97632.42;631443;224;67122;-64
2022/01/26 06:18:23;;;;;;;;;;;;;;;25.09;52.96;97636.47;631417;223;64962;-64
2022/01/26 06:20:51;;;;;;;;;;;;;;;25.09;49.77;97639.16;631431;224;62886;-64
2022/01/26 06:23:19;;;;;;;;;;;;;;;25.08;52.01;97640.26;631415;224;65888;-64
2022/01/26 06:25:49;;;;;;;;;;;;;;;25.08;50.67;97632.98;631344;224;67244;-64
2022/01/26 06:28:16;;;;;;;;;;;;;;;25.06;53.38;97634.35;631480;224;65077;-64
2022/01/26 06:30:47;;;;;;;;;;;;;;;25.06;49.06;97631.66;631471;224;67264;-64
2022/01/26 06:33:15;;;;;;;;;;;;;;;25.06;53.59;97637.05;631513;224;64691;-64
2022/01/26 06:35:42;;;;;;;;;;;;;;;25.03;52.55;97644.58;631458;224;63009;-64
2022/01/26 06:38:10;;;;;;;;;;;;;;;25.03;56.30;97636.52;631461;224;68222;-64
2022/01/26 06:40:37;;;;;;;;;;;;;;;25.02;52.71;97628.75;631386;224;67410;-64
2022/01/26 06:43:13;;;;;;;;;;;;;;;25.02;53.31;97637.61;631477;224;65023;-64
2022/01/26 06:45:39;;;;;;;;;;;;;;;25.02;55.62;97639.50;631188;224;67056;-64
2022/01/26 06:50:49;;;;;;;;;;;;;;;25.02;53.39;97632.23;631270;224;62985;-66
2022/01/26 06:53:17;;;;;;;;;;;;;;;25.03;51.75;97631.14;631419;224;67434;-64
2022/01/26 06:55:44;;;;;;;;;;;;;;;25.02;53.61;97629.54;630706;224;67034;-65
2022/01/26 06:58:12;;;;;;;;;;;;;;;25.06;56.06;97634.35;631429;224;65027;-65
2022/01/26 07:00:39;;;;;;;;;;;;;;;25.06;56.25;97631.66;631442;224;66850;-65
2022/01/26 07:03:07;;;;;;;;;;;;;;;25.07;56.27;97633.26;631256;224;67187;-64
2022/01/26 07:05:34;;;;;;;;;;;;;;;25.08;55.74;97638.37;631293;224;65044;-65
2022/01/26 07:08:02;;;;;;;;;;;;;;;25.09;56.79;97628.41;631426;224;67423;-63
2022/01/26 07:10:30;;;;;;;;;;;;;;;25.11;55.88;97628.94;631283;224;67946;-64
2022/01/26 07:12:58;;;;;;;;;;;;;;;25.11;59.01;97637.80;631472;224;64901;-62
2022/01/26 07:23:36;;;;;;;;;;;;;;;25.15;58.24;97632.67;631408;224;67160;-63
2022/01/26 07:26:04;;;;;;;;;;;;;;;25.14;58.35;97631.84;631371;224;67006;-62
2022/01/26 07:28:38;;;;;;;;;;;;;;;25.17;57.52;97625.13;631438;224;62971;-61
2022/01/26 07:31:01;;;;;;;;;;;;;;;25.19;57.89;97639.11;631002;224;66025;-62
2022/01/26 07:33:29;;;;;;;;;;;;;;;25.19;57.34;97625.66;631438;224;64843;-65
2022/01/26 07:35:56;;;;;;;;;;;;;;;25.20;56.52;97635.32;631430;224;62842;-65
2022/01/26 07:38:25;;;;;;;;;;;;;;;25.18;56.47;97622.17;631357;224;64884;-65
2022/01/26 07:40:53;;;;;;;;;;;;;;;25.23;51.62;97623.99;626960;224;67069;-65
2022/01/26 07:43:22;;;;;;;;;;;;;;;25.22;57.90;97625.89;625390;227;62933;-65
2022/01/26 07:45:49;;;;;;;;;;;;;;;25.19;56.88;97621.08;625254;227;65874;-66
2022/01/26 07:48:17;;;;;;;;;;;;;;;25.19;56.99;97623.77;624866;227;64439;-66
2022/01/26 07:50:45;;;;;;;;;;;;;;;25.21;58.36;97629.67;632129;224;65117;-66
2022/01/26 07:53:16;;;;;;;;;;;;;;;25.25;56.42;97630.70;631413;224;68411;-66
2022/01/26 07:55:42;;;;;;;;;;;;;;;25.26;56.48;97628.80;630334;225;67396;-66
2022/01/26 07:58:10;;;;;;;;;;;;;;;25.25;58.04;97625.31;630432;225;62917;-67
2022/01/26 08:00:38;;;;;;;;;;;;;;;25.26;58.22;97628.80;630486;225;67189;-66
2022/01/26 08:03:05;;;;;;;;;;;;;;;25.28;57.82;97631.22;630482;225;67055;-65
2022/01/26 08:05:40;;;;;;;;;;;;;;;25.27;57.00;97633.11;630464;225;64974;-67
2022/01/26 08:08:08;;;;;;;;;;;;;;;25.28;58.09;97634.70;630460;225;67114;-66
2022/01/26 08:10:36;;;;;;;;;;;;;;;25.28;57.36;97636.60;630543;225;67088;-65
2022/01/26 08:13:04;;;;;;;;;;;;;;;25.29;57.58;97628.26;630458;225;63054;-66
2022/01/26 08:15:31;;;;;;;;;;;;;;;25.28;57.40;97632.02;630502;225;66788;-66
2022/01/26 08:17:59;;;;;;;;;;;;;;;25.30;57.11;97629.06;630444;225;67170;-66
2022/01/26 08:20:27;;;;;;;;;;;;;;;25.31;57.09;97641.41;630352;225;64896;-67
2022/01/26 08:22:56;;;;;;;;;;;;;;;25.30;58.46;97634.44;630546;225;65293;-66
2022/01/26 08:25:24;;;;;;;;;;;;;;;25.32;57.10;97643.00;630499;225;67114;-64
2022/01/26 08:28:10;;;;;;;;;;;;;;;25.32;57.92;97641.14;630427;225;62893;-65
2022/01/26 08:30:36;;;;;;;;;;;;;;;25.33;56.93;97645.42;630271;224;65182;-65
2022/01/26 08:33:02;;;;;;;;;;;;;;;25.35;57.35;97645.95;630395;225;67054;-67
2022/01/26 08:35:30;;;;;;;;;;;;;;;25.34;58.29;97641.64;630428;225;65089;-66
2022/01/26 08:37:57;;;;;;;;;;;;;;;25.34;57.37;97641.64;630582;225;64875;-65
2022/01/26 08:40:25;;;;;;;;;;;;;;;25.36;58.94;97641.37;630433;225;64839;-66
2022/01/26 08:42:53;;;;;;;;;;;;;;;25.35;52.33;97632.50;630418;225;65047;-66
2022/01/26 08:45:21;;;;;;;;;;;;;;;25.32;55.21;97641.14;630449;225;67193;-66
2022/01/26 08:47:49;;;;;;;;;;;;;;;25.33;59.17;97642.73;630465;225;64990;-68
2022/01/26 08:50:17;;;;;;;;;;;;;;;25.29;58.31;97639.02;630455;225;65038;-66
2022/01/26 08:52:45;;;;;;;;;;;;;;;25.29;58.67;97638.19;630762;224;67174;-67
2022/01/26 08:55:12;;;;;;;;;;;;;;;25.29;59.33;97632.81;632598;224;67064;-69
2022/01/26 08:57:40;;;;;;;;;;;;;;;25.29;57.86;97639.02;632678;224;65019;-67
2022/01/26 09:00:08;;;;;;;;;;;;;;;25.32;57.91;97643.00;632683;224;64972;-66
2022/01/26 09:02:38;;;;;;;;;;;;;;;25.33;57.05;97639.25;632819;224;46862;-66
2022/01/26 09:05:08;;;;;;;;;;;;;;;25.37;57.32;97634.89;632584;224;63110;-67
2022/01/26 09:07:40;;;;;;;;;;;;;;;25.40;56.27;97631.63;632678;224;67219;-65
2022/01/26 09:10:09;;;;;;;;;;;;;;;25.38;58.22;97631.92;632586;224;46345;-65
2022/01/26 09:12:40;;;;;;;;;;;;;;;25.39;58.76;97630.03;632686;224;65019;-65
2022/01/26 09:15:06;;;;;;;;;;;;;;;25.34;52.90;97628.19;632594;224;67279;-66
2022/01/26 09:17:35;;;;;;;;;;;;;;;25.37;58.92;97630.33;632744;224;67222;-69
2022/01/26 09:20:03;;;;;;;;;;;;;;;25.34;59.20;97616.63;632728;224;62993;-68
2022/01/26 09:22:31;;;;;;;;;;;;;;;25.32;57.85;97611.55;632675;224;67963;-66
2022/01/26 09:24:59;;;;;;;;;;;;;;;25.32;59.29;97610.72;632691;224;66857;-68
2022/01/26 09:27:26;;;;;;;;;;;;;;;25.32;57.83;97600.78;632720;224;62887;-67
2022/01/26 09:29:55;;;;;;;;;;;;;;;25.36;56.88;97598.31;632650;224;44105;-68
2022/01/26 09:32:23;;;;;;;;;;;;;;;25.38;56.76;97594.25;632635;224;66621;-66
2022/01/26 09:34:51;;;;;;;;;;;;;;;25.38;56.71;97594.25;632687;224;65069;-68
2022/01/26 09:37:18;;;;;;;;;;;;;;;25.40;58.12;97596.64;632701;224;64963;-68
2022/01/26 09:39:46;;;;;;;;;;;;;;;25.40;57.61;97594.78;632544;224;64701;-67
2022/01/26 09:42:14;;;;;;;;;;;;;;;25.41;57.22;97580.23;632679;224;65042;-69
2022/01/26 09:44:42;;;;;;;;;;;;;;;25.36;57.24;97588.34;632678;224;71634;-68
2022/01/26 09:47:10;;;;;;;;;;;;;;;25.41;55.28;97577.53;632667;224;66679;-69
2022/01/26 09:49:38;;;;;;;;;;;;;;;25.39;57.88;97574.33;632692;224;65348;-68
2022/01/26 09:52:13;;;;;;;;;;;;;;;25.40;57.40;97584.02;631544;224;66913;-69
2022/01/26 09:54:37;;;;;;;;;;;;;;;25.41;58.27;97572.16;626748;225;67033;-68
2022/01/26 09:57:05;;;;;;;;;;;;;;;25.43;58.30;97582.64;627588;225;63053;-67
2022/01/26 09:59:32;;;;;;;;;;;;;;;25.44;56.37;97582.34;628215;224;67247;-70
2022/01/26 10:02:01;;;;;;;;;;;;;;;25.45;56.33;97573.20;630073;225;67048;-68
2022/01/26 10:04:33;;;;;;;;;;;;;;;25.46;57.05;97569.41;628477;224;65916;-68
2022/01/26 10:15:51;;;;;;;;;;;;;;;25.54;56.29;97569.87;625417;227;67184;-66
2022/01/26 10:18:15;;;;;;;;;;;;;;;25.54;54.48;97567.19;624711;227;66779;-66
2022/01/26 10:20:44;;;;;;;;;;;;;;;25.58;55.38;97566.30;625335;227;65389;-67
2022/01/26 10:23:18;;;;;;;;;;;;;;;25.59;55.06;97565.23;625290;227;67180;-68
2022/01/26 10:26:04;;;;;;;;;;;;;;;25.61;55.09;97559.55;625267;227;67201;-67
2022/01/26 10:28:48;;;;;;;;;;;;;;;25.63;53.56;97554.69;625240;227;65068;-67
2022/01/26 10:31:17;;;;;;;;;;;;;;;25.65;54.76;97555.20;625275;227;65952;-67
2022/01/26 10:34:04;;;;;;;;;;;;;;;25.67;53.42;97553.00;624688;227;66916;-67
2022/01/26 10:36:43;;;;;;;;;;;;;;;25.68;53.26;97560.01;625321;227;62997;-66
2022/01/26 10:39:19;;;;;;;;;;;;;;;25.72;51.64;97563.71;625403;227;67289;-67
2022/01/26 10:41:45;;;;;;;;;;;;;;;25.75;51.38;97565.82;625259;227;66818;-67
2022/01/26 10:44:12;;;;;;;;;;;;;;;25.77;51.23;97560.95;625374;227;63185;-68
2022/01/26 10:46:42;;;;;;;;;;;;;;;25.79;50.27;97561.48;625380;227;65562;-66
2022/01/26 10:54:24;;;;;;;;;;;;;;;25.87;50.50;97544.70;625297;227;67573;-67
2022/01/26 10:56:51;;;;;;;;;;;;;;;25.90;48.84;97546.02;625277;227;64913;-68
2022/01/26 10:59:19;;;;;;;;;;;;;;;25.88;49.25;97548.20;625379;227;65083;-66
2022/01/26 11:01:47;;;;;;;;;;;;;;;25.89;49.81;97542.53;625428;227;64908;-68
2022/01/26 11:04:14;;;;;;;;;;;;;;;25.89;50.78;97537.15;625286;227;64814;-66
2022/01/26 11:06:43;;;;;;;;;;;;;;;25.90;50.04;97549.51;625405;227;63695;-67
2022/01/26 11:09:13;;;;;;;;;;;;;;;25.93;49.94;97552.72;625354;227;66936;-68
2022/01/26 11:11:41;;;;;;;;;;;;;;;25.93;49.86;97540.05;625368;227;66824;-67
2022/01/26 11:14:16;;;;;;;;;;;;;;;25.93;50.48;97536.56;625453;227;63072;-68
2022/01/26 11:16:50;;;;;;;;;;;;;;;25.95;49.50;97542.47;625306;227;67220;-69
2022/01/26 11:19:17;;;;;;;;;;;;;;;25.97;48.87;97535.67;625378;227;67038;-61
2022/01/26 11:21:45;;;;;;;;;;;;;;;25.96;47.87;97552.93;625282;227;62967;-69
2022/01/26 11:24:23;;;;;;;;;;;;;;;26.01;47.04;97541.30;624816;227;67225;-69
2022/01/26 11:26:52;;;;;;;;;;;;;;;26.04;47.50;97549.59;612086;227;68007;-68
2022/01/26 11:29:32;;;;;;;;;;;;;;;26.06;48.45;97539.33;618232;227;63800;-67
2022/01/26 11:32:08;;;;;;;;;;;;;;;26.09;46.45;97538.75;625222;227;67280;-67
2022/01/26 11:34:36;;;;;;;;;;;;;;;26.11;46.20;97531.18;625405;227;66806;-66
2022/01/26 11:37:05;;;;;;;;;;;;;;;26.13;46.44;97536.27;625419;227;65085;-67
2022/01/26 11:45:08;;;;;;;;;;;;;;;26.18;45.87;97511.94;626514;225;64900;-67
2022/01/26 11:47:32;;;;;;;;;;;;;;;26.20;46.15;97520.55;617412;224;67310;-68
2022/01/26 11:50:05;;;;;;;;;;;;;;;26.21;46.50;97524.03;627815;224;67018;-68
2022/01/26 11:52:38;;;;;;;;;;;;;;;26.22;46.17;97510.28;621802;225;64893;-67
2022/01/26 11:55:09;;;;;;;;;;;;;;;26.25;45.85;97520.47;625159;225;67485;-68
2022/01/26 11:57:43;;;;;;;;;;;;;;;26.26;46.35;97511.28;623999;225;66966;-69
2022/01/26 12:00:13;;;;;;;;;;;;;;;26.27;46.08;97518.29;624625;224;63009;-68
2022/01/26 12:05:20;;;;;;;;;;;;;;;26.24;48.04;97513.45;623246;227;64873;-67
2022/01/26 12:07:48;;;;;;;;;;;;;;;26.25;46.85;97512.38;623177;227;67196;-67
2022/01/26 12:10:18;;;;;;;;;;;;;;;26.27;46.99;97514.77;623191;227;67468;-67
2022/01/26 12:12:45;;;;;;;;;;;;;;;26.27;47.01;97518.29;623243;227;66921;-66
2022/01/26 12:15:16;;;;;;;;;;;;;;;26.26;47.51;97516.67;623207;227;62775;-66
2022/01/26 12:18:17;;;;;;;;;;;;;;;26.28;47.20;97525.27;623191;227;64923;-67
2022/01/26 12:36:57;;;;;;;;;;;;;;;26.33;46.09;97510.92;623121;227;67218;-66
2022/01/26 12:39:11;;;;;;;;;;;;;;;26.34;45.67;97512.52;622806;227;65249;-67
2022/01/26 12:41:37;;;;;;;;;;;;;;;26.35;45.79;97509.53;625135;225;67218;-66
2022/01/26 12:44:10;;;;;;;;;;;;;;;26.35;45.98;97509.53;624531;225;67046;-66
2022/01/26 12:46:39;;;;;;;;;;;;;;;26.37;46.98;97506.53;623774;227;65103;-66
2022/01/26 12:49:08;;;;;;;;;;;;;;;26.35;46.18;97509.53;624449;225;67311;-66
2022/01/26 12:51:43;;;;;;;;;;;;;;;26.37;46.17;97505.73;623737;227;66607;-67
2022/01/26 12:54:10;;;;;;;;;;;;;;;26.38;46.21;97504.62;623180;227;64723;-66
2022/01/26 12:56:38;;;;;;;;;;;;;;;26.38;46.18;97497.34;623214;227;64908;-67
2022/01/26 12:59:09;;;;;;;;;;;;;;;26.39;47.21;97498.96;623175;227;65354;-66
2022/01/26 13:01:37;;;;;;;;;;;;;;;26.40;46.63;97499.75;623205;227;62964;-67
2022/01/26 13:04:06;;;;;;;;;;;;;;;26.39;47.20;97508.94;623252;227;67046;-67
2022/01/26 13:06:36;;;;;;;;;;;;;;;26.39;47.32;97503.55;623225;227;67028;-66
2022/01/26 13:09:06;;;;;;;;;;;;;;;26.39;48.56;97506.25;623241;227;62419;-66
2022/01/26 13:11:34;;;;;;;;;;;;;;;26.39;47.50;97509.73;621196;227;67366;-66
2022/01/26 13:14:10;;;;;;;;;;;;;;;26.40;47.67;97513.23;623190;227;67289;-65
2022/01/26 13:16:37;;;;;;;;;;;;;;;26.40;48.74;97510.53;622981;227;64867;-65
2022/01/26 13:19:14;;;;;;;;;;;;;;;26.40;48.23;97514.02;623120;227;66917;-68
2022/01/26 13:24:16;;;;;;;;;;;;;;;26.40;47.08;97507.84;624539;227;63018;-66
2022/01/26 13:26:52;;;;;;;;;;;;;;;26.41;48.38;97512.12;624258;225;65249;-67
2022/01/26 13:29:24;;;;;;;;;;;;;;;26.40;47.23;97505.94;624366;225;64630;-68
2022/01/26 13:34:43;;;;;;;;;;;;;;;26.46;46.06;97514.73;624536;227;67218;-65
2022/01/26 13:42:31;;;;;;;;;;;;;;;26.48;46.63;97507.96;624587;227;64714;-66
2022/01/26 13:55:27;;;;;;;;;;;;;;;26.39;46.28;97500.86;624533;227;65251;-71
2022/01/26 13:57:48;;;;;;;;;;;;;;;26.42;48.01;97505.66;623758;227;66801;-68
2022/01/26 14:00:10;;;;;;;;;;;;;;;26.45;48.05;97507.77;624451;225;66792;-65
2022/01/26 14:02:38;;;;;;;;;;;;;;;26.45;48.94;97507.77;624513;226;64864;-65
2022/01/26 14:05:06;;;;;;;;;;;;;;;26.45;49.02;97496.98;624439;227;66726;-66
2022/01/26 14:07:34;;;;;;;;;;;;;;;26.45;48.08;97496.98;624583;227;66831;-60
2022/01/26 14:10:01;;;;;;;;;;;;;;;26.45;48.50;97497.77;624534;227;65012;-65
2022/01/26 14:12:34;;;;;;;;;;;;;;;26.46;48.22;97493.18;624477;227;67014;-65
2022/01/26 14:14:59;;;;;;;;;;;;;;;26.45;50.18;97497.77;624463;225;67420;-65
2022/01/26 14:18:41;;;;;;;;;;;;;;;26.47;50.30;97497.49;624511;227;65025;-65
2022/01/26 14:22:59;;;;;;;;;;;;;;;26.46;48.73;97503.96;624496;227;67001;-72
2022/01/26 14:27:44;;;;;;;;;;;;;;;26.43;49.34;97508.04;624602;227;64975;-65
2022/01/26 14:30:24;;;;;;;;;;;;;;;26.47;47.15;97502.88;624447;225;64801;-72
2022/01/26 14:33:04;;;;;;;;;;;;;;;26.47;48.61;97508.27;624346;225;65016;-63
2022/01/26 14:35:42;;;;;;;;;;;;;;;26.42;50.61;97509.15;624141;225;66745;-74
2022/01/26 14:54:23;;;;;;;;;;;;;;;26.38;47.99;97508.13;624442;227;67103;-68
2022/01/26 15:45:02;;;;;;;;;;;;;;;26.35;48.66;97535.66;624577;227;65098;-68
2022/01/26 15:50:15;;;;;;;;;;;;;;;26.37;48.41;97538.07;623983;227;67048;-67
2022/01/26 15:52:53;;;;;;;;;;;;;;;26.39;51.53;97552.86;624364;225;66450;-67
2022/01/26 15:58:14;;;;;;;;;;;;;;;26.44;49.21;97554.68;626897;226;67071;-68
2022/01/26 16:06:05;;;;;;;;;;;;;;;26.31;54.21;97553.52;626935;226;67071;-68
2022/01/26 16:38:34;;;;;;;;;;;;;;;26.06;55.67;97595.09;626894;226;67032;-68
2022/01/26 18:17:44;;;;;;;;;;;;;;;26.20;51.78;97654.45;626880;226;65012;-64
2022/01/26 18:39:03;;;;;;;;;;;;;;;26.28;48.71;97654.59;626856;226;66919;-64
2022/01/26 18:49:14;;;;;;;;;;;;;;;26.31;50.26;97658.60;625605;225;64924;-64
2022/01/26 18:51:43;;;;;;;;;;;;;;;26.32;50.00;97665.58;626904;226;62744;-64
2022/01/26 18:54:12;;;;;;;;;;;;;;;26.32;50.36;97670.97;626838;226;67239;-64
2022/01/26 18:56:41;;;;;;;;;;;;;;;26.33;50.43;97668.00;626901;226;66939;-64
2022/01/26 18:59:10;;;;;;;;;;;;;;;26.35;48.99;97671.22;626903;226;65009;-64
2022/01/26 19:01:37;;;;;;;;;;;;;;;26.36;51.89;97672.02;626925;226;67207;-64
2022/01/26 19:04:05;;;;;;;;;;;;;;;26.38;48.80;97669.80;626927;226;67039;-64
2022/01/26 19:06:33;;;;;;;;;;;;;;;26.39;51.21;97670.63;626889;226;64979;-64
2022/01/26 19:09:00;;;;;;;;;;;;;;;26.39;48.74;97670.63;626897;226;65104;-69
2022/01/26 19:11:28;;;;;;;;;;;;;;;26.40;51.06;97662.23;626881;226;67289;-69
2022/01/26 19:13:55;;;;;;;;;;;;;;;26.41;49.43;97661.16;626883;226;64820;-69